createdAt,value
2019-03-27T00:01:14.453Z,10.23
2019-03-27T00:05:18.727Z,15.20
2019-03-27T00:09:23.284Z,13.73
2019-03-27T00:13:27.570Z,10.00
2019-03-27T00:17:31.856Z,8.70
2019-03-27T00:21:36.108Z,9.93
2019-03-27T00:25:40.363Z,11.70
2019-03-27T00:29:44.869Z,8.43
2019-03-27T00:33:49.216Z,7.50
2019-03-27T00:37:53.582Z,9.33
2019-03-27T00:41:57.936Z,8.53
2019-03-27T00:46:02.177Z,10.00
2019-03-27T00:50:06.761Z,9.40
2019-03-27T00:54:11.034Z,11.10
2019-03-27T00:58:15.299Z,7.63
2019-03-27T01:02:19.694Z,11.23
2019-03-27T01:06:24.111Z,8.20
2019-03-27T01:10:28.394Z,9.10
2019-03-27T01:14:32.733Z,8.57
2019-03-27T01:18:37.106Z,6.93
2019-03-27T01:22:41.449Z,10.90
2019-03-27T01:26:45.904Z,9.97
2019-03-27T01:30:50.251Z,6.90
2019-03-27T01:34:54.554Z,8.30
2019-03-27T01:38:58.895Z,9.67
2019-03-27T01:43:03.223Z,9.33
2019-03-27T01:47:07.652Z,8.97
2019-03-27T01:51:12.049Z,6.63
2019-03-27T01:55:16.325Z,9.23
2019-03-27T01:59:20.650Z,7.93
2019-03-27T02:03:25.052Z,6.90
2019-03-27T02:07:29.468Z,7.90
2019-03-27T02:11:33.780Z,8.33
2019-03-27T02:15:38.221Z,10.63
2019-03-27T02:19:42.485Z,8.47
2019-03-27T02:23:46.730Z,7.97
2019-03-27T02:27:51.132Z,6.63
2019-03-27T02:31:55.452Z,7.00
2019-03-27T02:35:59.743Z,12.37
2019-03-27T02:40:04.036Z,9.97
2019-03-27T02:44:08.361Z,7.67
2019-03-27T02:48:14.175Z,7.67
2019-03-27T02:52:18.586Z,8.87
2019-03-27T02:56:22.870Z,9.20
2019-03-27T03:00:27.217Z,9.17
2019-03-27T03:04:31.644Z,9.47
2019-03-27T03:08:36.044Z,9.90
2019-03-27T03:12:40.290Z,9.10
2019-03-27T03:16:44.686Z,11.27
2019-03-27T03:20:48.983Z,10.87
2019-03-27T03:24:53.217Z,14.40
2019-03-27T03:28:57.734Z,10.43
2019-03-27T03:33:02.081Z,9.77
2019-03-27T03:37:06.373Z,12.90
2019-03-27T03:41:10.659Z,18.30
2019-03-27T03:45:15.085Z,13.73
2019-03-27T03:49:19.477Z,13.17
2019-03-27T03:53:24.274Z,11.80
2019-03-27T03:57:29.128Z,11.60
2019-03-27T04:01:35.611Z,12.03
2019-03-27T04:05:39.888Z,12.37
2019-03-27T04:09:44.121Z,14.83
2019-03-27T04:13:48.529Z,13.63
2019-03-27T04:17:52.858Z,7.73
2019-03-27T04:21:57.414Z,12.20
2019-03-27T04:26:09.571Z,8.70
2019-03-27T04:30:10.100Z,10.37
2019-03-27T04:34:14.385Z,19.93
2019-03-27T04:38:18.673Z,11.53
2019-03-27T04:42:23.067Z,13.53
2019-03-27T04:46:27.420Z,11.40
2019-03-27T04:50:31.713Z,10.43
2019-03-27T04:54:36.021Z,11.67
2019-03-27T04:58:40.450Z,19.20
2019-03-27T05:02:44.733Z,32.00
2019-03-27T05:06:50.100Z,25.60
2019-03-27T05:10:54.416Z,23.30
2019-03-27T05:14:58.679Z,17.77
2019-03-27T05:19:04.752Z,11.07
2019-03-27T05:23:09.089Z,13.33
2019-03-27T05:27:13.370Z,13.53
2019-03-27T05:31:17.729Z,10.83
2019-03-27T05:35:22.239Z,13.30
2019-03-27T05:39:26.587Z,10.83
2019-03-27T05:43:30.909Z,13.33
2019-03-27T05:47:35.203Z,11.27
2019-03-27T05:51:39.710Z,12.33
2019-03-27T05:55:44.012Z,13.40
2019-03-27T05:59:48.378Z,13.20
2019-03-27T06:03:52.822Z,12.00
2019-03-27T06:07:57.197Z,13.77
2019-03-27T06:12:01.495Z,10.00
2019-03-27T06:16:05.826Z,14.03
2019-03-27T06:20:10.364Z,19.63
2019-03-27T06:24:14.592Z,16.50
2019-03-27T06:28:18.938Z,21.90
2019-03-27T06:32:23.258Z,24.33
2019-03-27T06:36:27.588Z,25.07
2019-03-27T06:40:31.849Z,24.60
2019-03-27T06:44:36.224Z,23.90
2019-03-27T06:48:41.524Z,33.00
2019-03-27T06:52:46.010Z,23.47
2019-03-27T06:56:50.298Z,27.40
2019-03-27T07:00:55.912Z,27.47
2019-03-27T07:05:00.388Z,32.77
2019-03-27T07:09:06.243Z,35.40
2019-03-27T07:13:10.618Z,26.67
2019-03-27T07:17:15.104Z,33.87
2019-03-27T07:21:19.465Z,24.50
2019-03-27T07:25:23.794Z,29.53
2019-03-27T07:29:28.053Z,25.03
2019-03-27T07:33:32.370Z,24.30
2019-03-27T07:37:36.887Z,31.90
2019-03-27T07:41:41.302Z,21.33
2019-03-27T07:45:46.574Z,19.60
2019-03-27T07:49:50.875Z,24.80
2019-03-27T07:53:55.158Z,21.50
2019-03-27T07:57:59.663Z,18.97
2019-03-27T08:02:03.920Z,21.70
2019-03-27T08:06:08.354Z,21.20
2019-03-27T08:10:12.897Z,22.63
2019-03-27T08:14:17.259Z,20.67
2019-03-27T08:18:21.678Z,18.70
2019-03-27T08:22:26.136Z,18.63
2019-03-27T08:26:30.378Z,19.10
2019-03-27T08:30:34.589Z,20.27
2019-03-27T08:34:39.869Z,14.00
2019-03-27T08:38:44.348Z,18.37
2019-03-27T08:42:48.675Z,16.17
2019-03-27T08:46:53.096Z,14.63
2019-03-27T08:50:57.455Z,15.17
2019-03-27T08:55:01.819Z,17.83
2019-03-27T08:59:06.186Z,16.33
2019-03-27T09:03:10.510Z,13.73
2019-03-27T09:07:15.810Z,14.00
2019-03-27T09:11:20.077Z,18.80
2019-03-27T09:15:24.542Z,17.27
2019-03-27T09:19:35.495Z,15.73
2019-03-27T09:23:34.813Z,19.50
2019-03-27T09:27:39.233Z,16.07
2019-03-27T09:31:45.320Z,16.33
2019-03-27T09:35:50.900Z,15.60
2019-03-27T09:39:55.114Z,13.23
2019-03-27T09:43:59.410Z,14.53
2019-03-27T09:48:03.660Z,13.97
2019-03-27T09:52:07.927Z,10.93
2019-03-27T09:56:18.910Z,11.33
2019-03-27T10:00:20.406Z,10.23
2019-03-27T10:04:24.671Z,10.40
2019-03-27T10:08:29.144Z,11.33
2019-03-27T10:12:33.514Z,10.13
2019-03-27T10:16:37.845Z,11.63
2019-03-27T10:20:42.177Z,12.97
2019-03-27T10:24:46.542Z,11.07
2019-03-27T10:28:51.931Z,5.60
2019-03-27T10:32:57.199Z,8.83
2019-03-27T10:37:01.469Z,6.30
2019-03-27T10:41:05.809Z,9.43
2019-03-27T10:45:10.383Z,6.03
2019-03-27T10:49:14.691Z,9.30
2019-03-27T10:53:19.952Z,13.97
2019-03-27T10:57:24.411Z,11.27
2019-03-27T11:01:28.713Z,7.20
2019-03-27T11:05:33.246Z,8.27
2019-03-27T11:09:37.547Z,8.90
2019-03-27T11:13:41.801Z,15.57
2019-03-27T11:17:46.000Z,9.27
2019-03-27T11:21:50.320Z,9.43
2019-03-27T11:25:54.665Z,10.03
2019-03-27T11:29:58.845Z,8.93
2019-03-27T11:34:03.171Z,14.37
2019-03-27T11:38:07.798Z,7.80
2019-03-27T11:42:12.034Z,12.63
2019-03-27T11:46:16.374Z,7.77
2019-03-27T11:50:21.754Z,9.70
2019-03-27T11:54:26.191Z,10.47
2019-03-27T11:58:30.504Z,8.43
2019-03-27T12:02:34.803Z,9.87
2019-03-27T12:06:39.445Z,10.10
2019-03-27T12:10:43.895Z,11.07
2019-03-27T12:14:48.153Z,6.03
2019-03-27T12:18:52.468Z,10.43
2019-03-27T12:22:57.918Z,5.53
2019-03-27T12:27:02.592Z,6.47
2019-03-27T12:31:07.105Z,7.83
2019-03-27T12:35:11.758Z,6.43
2019-03-27T12:39:16.072Z,12.50
2019-03-27T12:43:20.660Z,5.73
2019-03-27T12:47:24.888Z,7.57
2019-03-27T12:51:29.255Z,8.33
2019-03-27T12:55:34.162Z,8.07
2019-03-27T12:59:38.491Z,7.90
2019-03-27T13:03:44.438Z,7.83
2019-03-27T13:07:50.275Z,7.43
2019-03-27T13:11:54.895Z,6.33
2019-03-27T13:15:59.279Z,8.43
2019-03-27T13:20:04.224Z,8.87
2019-03-27T13:24:08.677Z,9.27
2019-03-27T13:28:12.997Z,10.23
2019-03-27T13:32:17.328Z,9.80
2019-03-27T13:36:21.474Z,13.07
2019-03-27T13:40:25.977Z,18.50
2019-03-27T13:44:36.835Z,12.27
2019-03-27T13:48:36.504Z,13.47
2019-03-27T13:52:41.099Z,14.07
2019-03-27T13:56:45.519Z,15.40
2019-03-27T14:00:49.903Z,16.37
2019-03-27T14:04:54.308Z,18.30
2019-03-27T14:08:58.560Z,13.80
2019-03-27T14:13:03.135Z,18.20
2019-03-27T14:17:07.524Z,15.97
2019-03-27T14:21:11.974Z,18.87
2019-03-27T14:25:16.273Z,14.73
2019-03-27T14:29:20.581Z,20.17
2019-03-27T14:33:24.957Z,25.57
2019-03-27T14:37:30.783Z,16.20
2019-03-27T14:41:35.198Z,20.70
2019-03-27T14:45:39.547Z,16.30
2019-03-27T14:49:43.900Z,19.40
2019-03-27T14:53:48.129Z,18.87
2019-03-27T14:57:52.423Z,17.37
2019-03-27T15:01:56.740Z,14.80
2019-03-27T15:06:01.155Z,15.17
2019-03-27T15:10:05.802Z,15.03
2019-03-27T15:14:10.093Z,17.33
2019-03-27T15:18:14.423Z,15.90
2019-03-27T15:22:22.805Z,14.87
2019-03-27T15:26:24.793Z,13.80
2019-03-27T15:30:29.328Z,13.97
2019-03-27T15:34:33.745Z,13.30
2019-03-27T15:38:38.101Z,9.07
2019-03-27T15:42:42.506Z,12.17
2019-03-27T15:46:47.889Z,12.13
2019-03-27T15:50:58.463Z,14.47
2019-03-27T15:54:58.330Z,16.57
2019-03-27T15:59:02.658Z,15.83
2019-03-27T16:03:08.032Z,16.00
2019-03-27T16:07:12.320Z,14.93
2019-03-27T16:11:16.742Z,13.83
2019-03-27T16:15:21.010Z,12.80
2019-03-27T16:19:25.326Z,13.07
2019-03-27T16:23:32.146Z,15.07
2019-03-27T16:27:35.699Z,20.33
2019-03-27T16:31:40.123Z,17.50
2019-03-27T16:35:44.387Z,17.73
2019-03-27T16:39:48.673Z,16.73
2019-03-27T16:43:53.097Z,17.57
2019-03-27T16:47:57.389Z,17.80
2019-03-27T16:52:01.707Z,16.13
2019-03-27T16:56:08.137Z,15.93
2019-03-27T17:00:12.466Z,16.83
2019-03-27T17:04:20.672Z,14.93
2019-03-27T17:08:24.898Z,15.57
2019-03-27T17:12:31.490Z,14.13
2019-03-27T17:16:35.413Z,14.90
2019-03-27T17:20:39.615Z,13.70
2019-03-27T17:24:43.829Z,13.73
2019-03-27T17:28:48.178Z,12.13
2019-03-27T17:32:52.456Z,11.50
2019-03-27T17:36:56.999Z,14.67
2019-03-27T17:41:01.304Z,25.63
2019-03-27T17:45:07.257Z,18.00
2019-03-27T17:49:11.606Z,18.53
2019-03-27T17:53:15.889Z,17.43
2019-03-27T17:57:20.310Z,21.73
2019-03-27T18:01:24.914Z,19.37
2019-03-27T18:05:29.312Z,20.30
2019-03-27T18:09:33.642Z,19.50
2019-03-27T18:13:38.046Z,31.80
2019-03-27T18:17:42.306Z,30.30
2019-03-27T18:21:46.661Z,33.07
2019-03-27T18:25:51.027Z,28.67
2019-03-27T18:29:55.437Z,23.40
2019-03-27T18:33:59.793Z,29.20
2019-03-27T18:38:04.195Z,39.13
2019-03-27T18:42:08.539Z,27.83
2019-03-27T18:46:12.867Z,28.07
2019-03-27T18:50:17.145Z,25.73
2019-03-27T18:54:23.555Z,22.77
2019-03-27T18:58:27.676Z,31.37
2019-03-27T19:02:32.102Z,32.00
2019-03-27T19:06:36.354Z,27.27
2019-03-27T19:10:40.672Z,22.03
2019-03-27T19:14:45.079Z,23.77
2019-03-27T19:18:49.376Z,21.60
2019-03-27T19:22:53.779Z,18.90
2019-03-27T19:26:58.087Z,18.47
2019-03-27T19:31:02.595Z,21.30
2019-03-27T19:35:07.215Z,27.73
2019-03-27T19:39:11.503Z,23.43
2019-03-27T19:43:16.101Z,27.07
2019-03-27T19:47:20.529Z,31.87
2019-03-27T19:51:24.756Z,31.70
2019-03-27T19:55:29.084Z,32.40
2019-03-27T19:59:33.405Z,33.73
2019-03-27T20:03:37.746Z,17.93
2019-03-27T20:07:42.044Z,15.60
2019-03-27T20:11:46.486Z,17.57
2019-03-27T20:15:51.531Z,15.00
2019-03-27T20:19:56.202Z,11.83
2019-03-27T20:24:00.609Z,14.07
2019-03-27T20:28:04.922Z,14.00
2019-03-27T20:32:09.269Z,24.47
2019-03-27T20:36:13.926Z,24.50
2019-03-27T20:40:27.801Z,20.23
2019-03-27T20:44:32.270Z,17.00
2019-03-27T20:48:36.606Z,21.77
2019-03-27T20:52:40.984Z,21.90
2019-03-27T20:56:45.331Z,26.53
2019-03-27T21:00:49.597Z,24.53
2019-03-27T21:04:54.159Z,24.93
2019-03-27T21:08:59.401Z,17.83
2019-03-27T21:13:03.748Z,16.93
2019-03-27T21:17:10.622Z,15.47
2019-03-27T21:21:14.969Z,18.37
2019-03-27T21:25:19.303Z,15.37
2019-03-27T21:29:23.658Z,15.03
2019-03-27T21:33:27.998Z,12.30
2019-03-27T21:37:33.711Z,13.30
2019-03-27T21:41:38.147Z,17.50
2019-03-27T21:45:42.365Z,12.87
2019-03-27T21:49:46.688Z,11.73
2019-03-27T21:53:51.065Z,11.50
2019-03-27T21:57:55.381Z,12.13
2019-03-27T22:01:59.745Z,18.00
2019-03-27T22:06:04.324Z,13.47
2019-03-27T22:10:08.678Z,16.03
2019-03-27T22:14:13.207Z,14.13
2019-03-27T22:18:17.542Z,17.63
2019-03-27T22:22:21.814Z,18.90
2019-03-27T22:26:26.061Z,18.73
2019-03-27T22:30:30.320Z,21.97
2019-03-27T22:34:34.668Z,19.40
2019-03-27T22:38:38.865Z,19.03
2019-03-27T22:42:43.176Z,16.00
2019-03-27T22:46:47.473Z,13.70
2019-03-27T22:50:51.759Z,16.00
2019-03-27T22:54:55.993Z,14.00
2019-03-27T22:59:00.346Z,12.90
2019-03-27T23:03:17.443Z,56.63
2019-03-27T23:07:10.638Z,33.70
2019-03-27T23:11:14.886Z,32.37
2019-03-27T23:15:19.418Z,58.10
2019-03-27T23:19:23.758Z,69.80
2019-03-27T23:23:28.065Z,68.13
2019-03-27T23:27:32.399Z,61.20
2019-03-27T23:31:36.734Z,47.10
2019-03-27T23:35:41.012Z,63.20
2019-03-27T23:39:45.352Z,54.77
2019-03-27T23:43:49.698Z,51.93
2019-03-27T23:47:53.990Z,71.90
2019-03-27T23:51:58.260Z,91.47
2019-03-27T23:56:15.998Z,85.23
